Time;durP1;ratioP1;P1;durP2;ratioP2;P2;SDS_P1;SDS_P2;PMS_P1;PMS_P2;Temp;Humidity;BMP_temperature;BMP_pressure;BME280_temperature;BME280_humidity;BME280_pressure;Samples;Min_cycle;Max_cycle;Signal;HPM_P1;HPM_P2
2023/12/22 00:00:12;;;;;;;;;;;154.40;2252.80;;;;;;5007737;28;19910;-77
2023/12/22 00:02:37;;;;;;;;;;;154.40;2252.80;;;;;;5002447;28;19910;-77
2023/12/22 00:05:03;;;;;;;;;;;154.40;2252.80;;;;;;5012018;28;19937;-76
2023/12/22 00:07:29;;;;;;;;;;;154.40;2252.80;;;;;;5005076;28;19906;-76
2023/12/22 00:09:54;;;;;;;;;;;154.30;2252.80;;;;;;4999833;28;19993;-76
2023/12/22 00:12:20;;;;;;;;;;;154.40;2252.80;;;;;;5006216;28;19921;-77
2023/12/22 00:14:46;;;;;;;;;;;154.30;2252.80;;;;;;4999042;28;19964;-78
2023/12/22 00:17:11;;;;;;;;;;;154.30;2252.80;;;;;;4999478;28;19910;-77
2023/12/22 00:19:37;;;;;;;;;;;154.20;2252.80;;;;;;5002196;28;19956;-77
2023/12/22 00:22:03;;;;;;;;;;;154.20;2252.80;;;;;;5013838;28;19909;-76
2023/12/22 00:24:29;;;;;;;;;;;154.30;2252.80;;;;;;5005844;28;19910;-77
2023/12/22 00:26:54;;;;;;;;;;;154.30;2252.80;;;;;;5009517;28;20015;-77
2023/12/22 00:29:20;;;;;;;;;;;154.30;2252.80;;;;;;5015256;28;19959;-77
2023/12/22 00:31:45;;;;;;;;;;;154.30;2252.80;;;;;;5011872;28;19913;-77
2023/12/22 00:34:11;;;;;;;;;;;154.20;2252.80;;;;;;5013245;28;19997;-77
2023/12/22 00:36:37;;;;;;;;;;;154.20;2252.80;;;;;;5016260;28;19909;-77
2023/12/22 00:39:03;;;;;;;;;;;154.20;2252.80;;;;;;5015064;28;19912;-77
2023/12/22 00:41:28;;;;;;;;;;;154.10;2252.80;;;;;;5016146;28;19909;-77
2023/12/22 00:43:54;;;;;;;;;;;154.10;2252.80;;;;;;5014894;28;19917;-77
2023/12/22 00:46:20;;;;;;;;;;;154.10;2252.80;;;;;;5016089;28;19929;-77
2023/12/22 00:48:45;;;;;;;;;;;154.10;2252.80;;;;;;5014911;28;19928;-77
2023/12/22 00:51:11;;;;;;;;;;;154.10;2252.80;;;;;;5014876;28;19913;-77
2023/12/22 00:53:37;;;;;;;;;;;154.10;2252.80;;;;;;5027704;28;20363;-77
2023/12/22 00:56:02;;;;;;;;;;;154.10;2252.80;;;;;;5014242;28;20310;-77
2023/12/22 00:58:29;;;;;;;;;;;154.10;2252.80;;;;;;5014683;28;20271;-77
2023/12/22 01:00:55;;;;;;;;;;;154.10;2252.80;;;;;;5014749;28;19906;-77
2023/12/22 01:03:20;;;;;;;;;;;154.20;2252.80;;;;;;5014503;28;19913;-76
2023/12/22 01:05:46;;;;;;;;;;;154.10;2252.80;;;;;;5027160;28;19908;-77
2023/12/22 01:08:12;;;;;;;;;;;154.20;2252.80;;;;;;5015757;28;19968;-76
2023/12/22 01:10:37;;;;;;;;;;;154.10;2252.80;;;;;;5013974;28;19917;-77
2023/12/22 01:13:03;;;;;;;;;;;154.00;2252.80;;;;;;5016034;28;19909;-77
2023/12/22 01:15:29;;;;;;;;;;;154.00;2252.80;;;;;;5014172;28;19905;-77
2023/12/22 01:17:54;;;;;;;;;;;153.90;2252.80;;;;;;5014234;28;20274;-77
2023/12/22 01:20:20;;;;;;;;;;;153.90;2252.80;;;;;;5014253;28;19905;-78
2023/12/22 01:22:45;;;;;;;;;;;153.90;2252.80;;;;;;5015593;28;20309;-76
2023/12/22 01:25:11;;;;;;;;;;;154.00;2252.80;;;;;;5013611;28;19906;-77
2023/12/22 01:27:36;;;;;;;;;;;154.00;2252.80;;;;;;5014105;28;19976;-76
2023/12/22 01:30:03;;;;;;;;;;;154.10;2252.80;;;;;;5028166;28;19928;-77
2023/12/22 01:32:34;;;;;;;;;;;154.00;2252.80;;;;;;5013876;28;19913;-77
2023/12/22 01:35:03;;;;;;;;;;;154.30;2252.80;;;;;;5015114;28;20267;-77
2023/12/22 01:37:29;;;;;;;;;;;154.20;2252.80;;;;;;5013867;28;20365;-77
2023/12/22 01:39:55;;;;;;;;;;;154.10;2252.80;;;;;;5013456;28;20355;-77
2023/12/22 01:42:21;;;;;;;;;;;154.10;2252.80;;;;;;5013764;28;19917;-77
2023/12/22 01:44:46;;;;;;;;;;;154.00;2252.80;;;;;;5013968;28;19910;-77
2023/12/22 01:47:12;;;;;;;;;;;154.10;2252.80;;;;;;5013622;28;19905;-77
2023/12/22 01:49:38;;;;;;;;;;;154.10;2252.80;;;;;;5013536;28;20363;-77
2023/12/22 01:52:04;;;;;;;;;;;154.10;2252.80;;;;;;5013636;28;19959;-77
2023/12/22 01:54:29;;;;;;;;;;;154.30;2252.80;;;;;;5013494;28;20355;-77
2023/12/22 01:56:55;;;;;;;;;;;154.40;2252.80;;;;;;5014889;28;19928;-77
2023/12/22 01:59:21;;;;;;;;;;;154.50;2252.80;;;;;;5013159;28;19928;-76
2023/12/22 02:01:47;;;;;;;;;;;179.20;2252.80;;;;;;5014704;28;19909;-77
2023/12/22 02:04:14;;;;;;;;;;;179.20;2252.80;;;;;;5013295;28;19910;-76
2023/12/22 02:06:39;;;;;;;;;;;179.30;2252.80;;;;;;5013380;28;19910;-77
2023/12/22 02:09:05;;;;;;;;;;;179.40;2252.80;;;;;;5014351;28;19933;-76
2023/12/22 02:11:30;;;;;;;;;;;179.50;2252.80;;;;;;5013091;28;19922;-76
2023/12/22 02:19:38;;;;;;;;;;;179.40;2252.80;;;;;;4536169;23;19932;-77
2023/12/22 02:22:05;;;;;;;;;;;179.20;2252.80;;;;;;5019279;28;19915;-77
2023/12/22 02:24:31;;;;;;;;;;;179.20;2252.80;;;;;;5033334;28;19909;-77
2023/12/22 02:27:02;;;;;;;;;;;179.20;2252.80;;;;;;5032898;28;20281;-77
2023/12/22 02:29:29;;;;;;;;;;;179.30;2252.80;;;;;;5033011;28;19916;-76
2023/12/22 02:31:56;;;;;;;;;;;179.30;2252.80;;;;;;5032602;28;19992;-77
2023/12/22 02:34:22;;;;;;;;;;;179.40;2252.80;;;;;;5031596;28;20004;-77
2023/12/22 02:36:49;;;;;;;;;;;179.40;2252.80;;;;;;5047157;28;19912;-77
2023/12/22 02:39:14;;;;;;;;;;;179.50;2252.80;;;;;;5048200;28;19913;-77
2023/12/22 02:41:40;;;;;;;;;;;179.60;2252.80;;;;;;5032744;28;20300;-77
2023/12/22 02:44:06;;;;;;;;;;;179.70;2252.80;;;;;;5032616;28;20427;-77
2023/12/22 02:46:32;;;;;;;;;;;179.70;2252.80;;;;;;5048155;28;19908;-77
2023/12/22 02:48:57;;;;;;;;;;;179.90;2252.80;;;;;;5014673;28;20266;-77
2023/12/22 02:51:23;;;;;;;;;;;179.90;2252.80;;;;;;5032874;28;20003;-77
2023/12/22 02:53:48;;;;;;;;;;;179.90;2252.80;;;;;;5032528;28;20373;-76
2023/12/22 02:56:14;;;;;;;;;;;180.00;2252.80;;;;;;5048074;28;19912;-77
2023/12/22 02:58:40;;;;;;;;;;;180.10;2252.80;;;;;;5014686;28;20358;-77
2023/12/22 03:01:05;;;;;;;;;;;180.10;2252.80;;;;;;5032420;28;19905;-77
2023/12/22 03:03:31;;;;;;;;;;;180.10;2252.80;;;;;;5014698;28;19905;-77
2023/12/22 03:05:56;;;;;;;;;;;204.80;2252.80;;;;;;5014808;28;19905;-78
2023/12/22 03:08:22;;;;;;;;;;;204.80;2252.80;;;;;;5014917;28;19909;-77
2023/12/22 03:10:48;;;;;;;;;;;180.10;2252.80;;;;;;5031139;28;19959;-77
2023/12/22 03:13:13;;;;;;;;;;;204.90;2252.80;;;;;;5015105;28;19905;-77
2023/12/22 03:15:39;;;;;;;;;;;205.10;2252.80;;;;;;5031000;28;20373;-77
2023/12/22 03:18:04;;;;;;;;;;;205.30;2252.80;;;;;;5030850;28;20348;-77
2023/12/22 03:20:30;;;;;;;;;;;205.30;2252.80;;;;;;5014659;28;19996;-77
2023/12/22 03:22:55;;;;;;;;;;;205.30;2252.80;;;;;;5032404;28;20250;-77
2023/12/22 03:25:21;;;;;;;;;;;205.30;2252.80;;;;;;5032216;28;19912;-77
2023/12/22 03:27:47;;;;;;;;;;;205.40;2252.80;;;;;;5032080;28;20488;-77
2023/12/22 03:30:13;;;;;;;;;;;205.50;2252.80;;;;;;5031183;28;20301;-77
2023/12/22 03:32:38;;;;;;;;;;;205.50;2252.80;;;;;;5031041;28;19956;-77
2023/12/22 03:35:04;;;;;;;;;;;205.60;2252.80;;;;;;5014535;28;19972;-77
2023/12/22 03:37:29;;;;;;;;;;;205.70;2252.80;;;;;;5047336;28;19963;-76
2023/12/22 03:39:55;;;;;;;;;;;205.70;2252.80;;;;;;5014923;28;19996;-77
2023/12/22 03:42:21;;;;;;;;;;;205.70;2252.80;;;;;;5014491;28;19905;-77
2023/12/22 03:44:46;;;;;;;;;;;205.70;2252.80;;;;;;5031027;28;19909;-77
2023/12/22 03:47:12;;;;;;;;;;;205.70;2252.80;;;;;;5015666;28;19939;-77
2023/12/22 03:49:37;;;;;;;;;;;205.70;2252.80;;;;;;5018316;28;20289;-76
2023/12/22 03:52:03;;;;;;;;;;;205.70;2252.80;;;;;;5017868;28;19920;-77
2023/12/22 03:54:28;;;;;;;;;;;205.70;2252.80;;;;;;5018090;28;20281;-77
2023/12/22 03:56:54;;;;;;;;;;;205.60;2252.80;;;;;;5034398;28;19944;-77
2023/12/22 03:59:20;;;;;;;;;;;205.60;2252.80;;;;;;5035776;28;19905;-76
2023/12/22 04:01:50;;;;;;;;;;;205.60;2252.80;;;;;;5017652;28;19905;-77
2023/12/22 04:04:15;;;;;;;;;;;205.60;2252.80;;;;;;5035632;28;20322;-77
2023/12/22 04:06:41;;;;;;;;;;;205.60;2252.80;;;;;;5034539;28;19955;-77
2023/12/22 04:09:07;;;;;;;;;;;205.60;2252.80;;;;;;5035604;28;19956;-76
2023/12/22 04:11:34;;;;;;;;;;;205.60;2252.80;;;;;;5035615;28;19939;-77
2023/12/22 04:14:00;;;;;;;;;;;205.60;2252.80;;;;;;5050742;28;20441;-77
2023/12/22 04:16:25;;;;;;;;;;;205.60;2252.80;;;;;;5035074;28;19987;-77
2023/12/22 04:18:51;;;;;;;;;;;205.60;2252.80;;;;;;5033731;28;19921;-76
2023/12/22 04:21:16;;;;;;;;;;;205.60;2252.80;;;;;;5017914;28;19905;-77
2023/12/22 04:23:42;;;;;;;;;;;205.60;2252.80;;;;;;5034954;28;20004;-77
2023/12/22 04:26:08;;;;;;;;;;;205.60;2252.80;;;;;;5017113;28;19912;-76
2023/12/22 04:28:33;;;;;;;;;;;205.60;2252.80;;;;;;5035148;28;19904;-77
2023/12/22 04:30:59;;;;;;;;;;;205.50;2252.80;;;;;;5017163;28;19915;-76
2023/12/22 04:33:25;;;;;;;;;;;205.50;2252.80;;;;;;5034971;28;19959;-77
2023/12/22 04:35:50;;;;;;;;;;;205.50;2252.80;;;;;;5034763;28;19912;-77
2023/12/22 04:38:16;;;;;;;;;;;205.40;2252.80;;;;;;5017406;28;19952;-76
2023/12/22 04:40:41;;;;;;;;;;;205.40;2252.80;;;;;;5034527;28;20302;-76
2023/12/22 04:43:07;;;;;;;;;;;205.40;2252.80;;;;;;5017485;28;19905;-77
2023/12/22 04:45:32;;;;;;;;;;;205.30;2252.80;;;;;;5034573;28;19955;-77
2023/12/22 04:47:58;;;;;;;;;;;205.30;2252.80;;;;;;5034847;28;20004;-77
2023/12/22 04:50:24;;;;;;;;;;;205.30;2252.80;;;;;;5034568;28;20358;-77
2023/12/22 04:52:49;;;;;;;;;;;205.20;2150.40;;;;;;5034643;28;20360;-77
2023/12/22 04:55:15;;;;;;;;;;;205.20;2252.80;;;;;;5034109;28;19932;-77
2023/12/22 04:57:40;;;;;;;;;;;205.20;2252.80;;;;;;5034413;28;20269;-77
2023/12/22 05:00:06;;;;;;;;;;;205.20;2252.80;;;;;;5033658;28;19928;-77
2023/12/22 05:02:32;;;;;;;;;;;205.10;2252.80;;;;;;5049751;28;19905;-77
2023/12/22 05:04:58;;;;;;;;;;;205.10;2252.80;;;;;;5033705;28;19905;-77
2023/12/22 05:07:23;;;;;;;;;;;205.10;2252.80;;;;;;5034586;28;19911;-78
2023/12/22 05:09:49;;;;;;;;;;;205.10;2252.80;;;;;;5016977;28;20000;-77
2023/12/22 05:12:14;;;;;;;;;;;205.10;2201.60;;;;;;5016598;28;19913;-77
2023/12/22 05:14:40;;;;;;;;;;;205.10;2252.80;;;;;;5034112;28;19905;-77
2023/12/22 05:17:06;;;;;;;;;;;205.00;2252.80;;;;;;5033904;28;20349;-77
2023/12/22 05:19:31;;;;;;;;;;;205.00;2252.80;;;;;;5016154;28;19925;-77
2023/12/22 05:21:57;;;;;;;;;;;205.00;2252.80;;;;;;5032866;28;19912;-77
2023/12/22 05:24:22;;;;;;;;;;;204.90;2252.80;;;;;;5034150;28;19941;-77
2023/12/22 05:26:48;;;;;;;;;;;205.00;2252.80;;;;;;5033767;28;20421;-76
2023/12/22 05:29:14;;;;;;;;;;;204.90;2252.80;;;;;;5033726;28;19909;-77
2023/12/22 05:31:39;;;;;;;;;;;205.00;2252.80;;;;;;5034076;28;19970;-76
2023/12/22 05:34:05;;;;;;;;;;;205.00;2252.80;;;;;;5033640;28;19996;-77
2023/12/22 05:36:31;;;;;;;;;;;205.00;2252.80;;;;;;5033730;28;19905;-77
2023/12/22 05:38:57;;;;;;;;;;;204.90;2176.00;;;;;;5033616;28;19912;-77
2023/12/22 05:41:22;;;;;;;;;;;204.90;2252.80;;;;;;5033895;28;19909;-76
2023/12/22 05:43:48;;;;;;;;;;;204.90;2252.80;;;;;;5015331;28;19913;-77
2023/12/22 05:46:13;;;;;;;;;;;204.90;2252.80;;;;;;5033683;28;20289;-77
2023/12/22 05:48:39;;;;;;;;;;;204.90;2252.80;;;;;;5033127;28;20003;-77
2023/12/22 05:51:07;;;;;;;;;;;204.90;2252.80;;;;;;5015732;28;19959;-77
2023/12/22 05:53:33;;;;;;;;;;;204.90;2252.80;;;;;;5032785;28;19952;-77
2023/12/22 05:55:58;;;;;;;;;;;204.90;2252.80;;;;;;5015381;28;19912;-77
2023/12/22 05:58:24;;;;;;;;;;;204.90;2176.00;;;;;;5032828;28;19912;-77
2023/12/22 06:00:50;;;;;;;;;;;204.90;1868.80;;;;;;5009261;28;19909;-77
2023/12/22 06:03:15;;;;;;;;;;;204.90;2252.80;;;;;;5025224;28;19909;-76
2023/12/22 06:05:41;;;;;;;;;;;204.90;2252.80;;;;;;5004398;28;19951;-78
2023/12/22 06:08:06;;;;;;;;;;;204.90;2252.80;;;;;;5025158;28;20285;-76
2023/12/22 06:10:32;;;;;;;;;;;205.00;2252.80;;;;;;5027549;28;20015;-77
2023/12/22 06:12:57;;;;;;;;;;;205.00;2252.80;;;;;;5019128;28;20321;-76
2023/12/22 06:15:23;;;;;;;;;;;205.00;2252.80;;;;;;5017038;28;19910;-76
2023/12/22 06:17:49;;;;;;;;;;;205.00;2252.80;;;;;;5026432;28;20366;-77
2023/12/22 06:20:14;;;;;;;;;;;205.10;2252.80;;;;;;5003964;28;19913;-76
2023/12/22 06:22:40;;;;;;;;;;;205.10;2252.80;;;;;;5024524;28;19909;-77
2023/12/22 06:25:07;;;;;;;;;;;205.20;2252.80;;;;;;5004130;28;19905;-77
2023/12/22 06:27:33;;;;;;;;;;;205.20;2252.80;;;;;;5022588;28;19928;-76
2023/12/22 06:29:59;;;;;;;;;;;205.20;2252.80;;;;;;5040972;28;20003;-76
2023/12/22 06:32:24;;;;;;;;;;;205.30;2252.80;;;;;;5016831;28;20011;-77
2023/12/22 06:34:50;;;;;;;;;;;205.30;2252.80;;;;;;5040712;28;19923;-76
2023/12/22 06:37:16;;;;;;;;;;;205.30;2252.80;;;;;;5036717;28;19917;-76
2023/12/22 06:39:42;;;;;;;;;;;205.30;2252.80;;;;;;5015152;28;20001;-76
2023/12/22 06:42:10;;;;;;;;;;;205.30;2252.80;;;;;;5006957;28;19937;-77
2023/12/22 06:44:43;;;;;;;;;;;205.30;2252.80;;;;;;5041733;28;19956;-76
2023/12/22 06:47:09;;;;;;;;;;;205.30;2252.80;;;;;;5011038;28;19944;-77
2023/12/22 06:49:34;;;;;;;;;;;205.30;2252.80;;;;;;5009096;28;19949;-77
2023/12/22 06:52:01;;;;;;;;;;;205.40;2252.80;;;;;;5026092;28;20353;-76
2023/12/22 06:54:26;;;;;;;;;;;205.30;2252.80;;;;;;5015423;28;19909;-76
2023/12/22 06:56:52;;;;;;;;;;;205.30;2252.80;;;;;;5025435;28;19968;-77
2023/12/22 06:59:18;;;;;;;;;;;205.30;2252.80;;;;;;5021484;28;20377;-77
2023/12/22 07:01:43;;;;;;;;;;;205.30;2252.80;;;;;;5031293;28;20369;-76
2023/12/22 07:04:09;;;;;;;;;;;205.40;2252.80;;;;;;5027738;28;19905;-76
2023/12/22 07:06:35;;;;;;;;;;;205.30;2252.80;;;;;;5018116;28;19916;-76
2023/12/22 07:09:16;;;;;;;;;;;205.30;2252.80;;;;;;5028363;28;19916;-76
2023/12/22 07:11:43;;;;;;;;;;;205.40;2252.80;;;;;;5027227;28;19917;-79
2023/12/22 07:14:08;;;;;;;;;;;205.40;2252.80;;;;;;5043701;28;19964;-80
2023/12/22 07:16:35;;;;;;;;;;;205.40;2252.80;;;;;;5017704;28;19944;-79
2023/12/22 07:19:01;;;;;;;;;;;205.40;2252.80;;;;;;5025941;28;20302;-82
2023/12/22 07:21:26;;;;;;;;;;;205.50;2252.80;;;;;;5027735;28;19981;-84
2023/12/22 07:23:52;;;;;;;;;;;205.40;2252.80;;;;;;5018206;28;19915;-80
2023/12/22 07:26:17;;;;;;;;;;;205.40;2252.80;;;;;;5007655;28;20004;-78
2023/12/22 07:28:43;;;;;;;;;;;205.40;2252.80;;;;;;5004422;28;19906;-79
2023/12/22 07:31:08;;;;;;;;;;;205.40;2252.80;;;;;;5035319;28;19913;-79
2023/12/22 07:33:34;;;;;;;;;;;205.30;2252.80;;;;;;5022925;28;19909;-79
2023/12/22 07:36:00;;;;;;;;;;;205.30;2252.80;;;;;;5048775;28;19999;-80
2023/12/22 07:38:26;;;;;;;;;;;205.20;2252.80;;;;;;5041638;28;19914;-80
2023/12/22 07:40:51;;;;;;;;;;;205.20;2252.80;;;;;;5016323;28;19910;-78
2023/12/22 07:43:17;;;;;;;;;;;205.30;2252.80;;;;;;5024919;28;19989;-77
2023/12/22 07:45:42;;;;;;;;;;;205.30;2252.80;;;;;;5028228;28;19968;-79
2023/12/22 07:48:08;;;;;;;;;;;205.30;2252.80;;;;;;5010717;28;19921;-79
2023/12/22 07:50:33;;;;;;;;;;;205.30;2252.80;;;;;;5019805;28;20370;-79
2023/12/22 07:52:59;;;;;;;;;;;205.30;2252.80;;;;;;5027076;28;19913;-81
2023/12/22 07:55:25;;;;;;;;;;;205.40;2252.80;;;;;;5022950;28;19909;-81
2023/12/22 07:57:50;;;;;;;;;;;205.50;2252.80;;;;;;5035608;28;19910;-79
2023/12/22 08:00:17;;;;;;;;;;;205.60;2252.80;;;;;;5041679;28;19909;-78
2023/12/22 08:02:42;;;;;;;;;;;205.60;2252.80;;;;;;5023545;28;19913;-81
2023/12/22 08:05:08;;;;;;;;;;;205.70;2252.80;;;;;;5041944;28;19909;-83
2023/12/22 08:07:34;;;;;;;;;;;230.50;2252.80;;;;;;5028870;28;19913;-79
2023/12/22 08:10:01;;;;;;;;;;;230.50;2252.80;;;;;;5045190;28;19913;-79
2023/12/22 08:12:27;;;;;;;;;;;230.60;2252.80;;;;;;5013513;28;20011;-81
2023/12/22 08:14:53;;;;;;;;;;;230.60;2252.80;;;;;;5024740;28;19913;-83
2023/12/22 08:17:19;;;;;;;;;;;230.70;2252.80;;;;;;5024321;28;19955;-81
2023/12/22 08:19:44;;;;;;;;;;;230.70;2252.80;;;;;;5009232;28;20259;-83
2023/12/22 08:22:10;;;;;;;;;;;230.70;2252.80;;;;;;5046375;28;19955;-83
2023/12/22 08:24:36;;;;;;;;;;;230.70;2252.80;;;;;;5010240;28;19905;-81
2023/12/22 08:27:02;;;;;;;;;;;230.70;2252.80;;;;;;5028795;28;19910;-82
2023/12/22 08:29:27;;;;;;;;;;;230.70;2252.80;;;;;;5025678;28;20366;-78
2023/12/22 08:31:53;;;;;;;;;;;230.80;2252.80;;;;;;5019971;28;19928;-84
2023/12/22 08:34:19;;;;;;;;;;;230.80;2252.80;;;;;;5026147;28;19935;-80
2023/12/22 08:36:44;;;;;;;;;;;230.90;2252.80;;;;;;5022358;28;20285;-81
2023/12/22 08:53:47;;;;;;;9.18;4.53;;;230.70;2252.80;;;;;;5102313;27;20427;-77
2023/12/22 08:56:14;;;;;;;12.70;6.30;;;256.00;2252.80;;;;;;5109933;28;20534;-77
2023/12/22 08:58:40;;;;;;;14.75;6.13;;;256.00;2252.80;;;;;;5108448;28;20512;-78
2023/12/22 09:01:07;;;;;;;12.90;5.72;;;231.20;2252.80;;;;;;5110057;28;20027;-79
2023/12/22 09:03:35;;;;;;;16.48;7.07;;;231.00;2252.80;;;;;;5088506;28;20039;-79
2023/12/22 09:06:01;;;;;;;22.48;7.38;;;231.10;2252.80;;;;;;5080603;28;20143;-78
2023/12/22 09:08:27;;;;;;;23.52;8.65;;;231.10;2252.80;;;;;;5097577;28;20051;-77
2023/12/22 09:10:54;;;;;;;33.55;10.18;;;231.10;2252.80;;;;;;5100231;28;20063;-79
2023/12/22 09:13:20;;;;;;;19.23;5.65;;;231.20;2252.80;;;;;;5095658;28;20020;-77
2023/12/22 09:15:48;;;;;;;34.70;11.18;;;231.10;2252.80;;;;;;5079346;28;20031;-78
2023/12/22 09:18:14;;;;;;;23.35;7.80;;;231.10;2252.80;;;;;;5077900;28;20025;-78
2023/12/22 09:20:40;;;;;;;37.10;13.00;;;231.10;2252.80;;;;;;5099820;28;20059;-77
2023/12/22 09:23:08;;;;;;;37.13;13.68;;;231.10;2252.80;;;;;;5096584;28;20068;-81
2023/12/22 09:25:33;;;;;;;29.35;12.45;;;231.00;2252.80;;;;;;5073286;28;20110;-77
2023/12/22 09:27:59;;;;;;;40.15;17.92;;;231.10;2252.80;;;;;;5085358;28;20054;-78
2023/12/22 09:30:25;;;;;;;;;;;231.10;2252.80;;;;;;5080597;28;20036;-77
2023/12/22 09:32:50;;;;;;;48.42;19.15;;;231.20;2252.80;;;;;;5097347;28;19909;-77
2023/12/22 09:35:17;;;;;;;;;;;231.10;2252.80;;;;;;5087247;28;20123;-77
2023/12/22 09:37:43;;;;;;;56.70;22.30;;;231.10;2252.80;;;;;;5092192;28;19958;-77
2023/12/22 09:40:10;;;;;;;51.00;17.17;;;231.00;2252.80;;;;;;5093102;28;21056;-77
2023/12/22 09:42:40;;;;;;;34.45;12.70;;;231.00;2252.80;;;;;;5092697;28;20036;-77
2023/12/22 09:45:09;;;;;;;80.63;25.60;;;231.10;2252.80;;;;;;5076784;28;20017;-77
2023/12/22 09:47:35;;;;;;;16.27;7.35;;;231.10;2252.80;;;;;;5101760;28;20478;-77
2023/12/22 09:50:01;;;;;;;44.15;16.63;;;231.30;2252.80;;;;;;5097143;28;20031;-77
2023/12/22 09:52:29;;;;;;;51.20;20.08;;;231.30;2252.80;;;;;;5082773;28;20058;-77
2023/12/22 09:54:55;;;;;;;34.75;14.75;;;231.30;2252.80;;;;;;5076647;28;20115;-77
2023/12/22 09:57:24;;;;;;;57.60;22.58;;;256.00;2252.80;;;;;;5072294;28;20033;-77
2023/12/22 09:59:52;;;;;;;28.35;9.65;;;256.60;2252.80;;;;;;5087362;28;20020;-77
2023/12/22 10:02:18;;;;;;;11.50;5.95;;;256.40;2252.80;;;;;;5069521;28;20429;-77
2023/12/22 10:04:44;;;;;;;11.40;4.63;;;256.30;2252.80;;;;;;5066209;28;20054;-77
2023/12/22 10:07:14;;;;;;;9.95;5.30;;;256.20;2252.80;;;;;;5070756;28;20079;-77
2023/12/22 10:09:41;;;;;;;14.27;6.65;;;256.10;2252.80;;;;;;5066914;28;20062;-76
2023/12/22 10:12:11;;;;;;;18.17;6.63;;;256.00;2252.80;;;;;;5068263;28;20390;-76
2023/12/22 10:14:38;;;;;;;15.40;8.48;;;256.20;2252.80;;;;;;5065160;28;20504;-77
2023/12/22 10:17:07;;;;;;;14.48;7.57;;;281.70;2278.40;;;;;;5070928;28;20032;-77
2023/12/22 10:19:33;;;;;;;15.75;6.72;;;282.40;2278.40;;;;;;5077113;28;20017;-77
2023/12/22 10:21:58;;;;;;;16.17;6.80;;;282.20;2278.40;;;;;;5069759;28;20047;-77
2023/12/22 10:24:37;;;;;;;11.07;6.40;;;282.10;2278.40;;;;;;5063361;28;20025;-76
2023/12/22 10:27:04;;;;;;;11.60;5.97;;;282.00;2278.40;;;;;;5076562;28;20493;-77
2023/12/22 10:29:30;;;;;;;13.68;6.53;;;282.00;2278.40;;;;;;5071000;28;20033;-77
2023/12/22 10:31:55;;;;;;;15.25;6.45;;;281.80;2278.40;;;;;;5073358;28;20032;-77
2023/12/22 10:34:21;;;;;;;17.63;7.00;;;281.70;2278.40;;;;;;5077907;28;20029;-78
2023/12/22 10:36:47;;;;;;;;;;;282.50;2278.40;;;;;;5074677;28;20032;-78
2023/12/22 10:39:13;;;;;;;11.95;6.60;;;307.60;2304.00;;;;;;5082397;28;19909;-79
2023/12/22 10:41:38;;;;;;;15.18;6.82;;;307.80;2304.00;;;;;;5082401;28;20036;-78
2023/12/22 10:44:04;;;;;;;18.00;7.85;;;332.80;2329.60;;;;;;5061500;28;20075;-78
2023/12/22 10:46:32;;;;;;;;;;;333.10;2329.60;;;;;;5067913;28;20058;-78
2023/12/22 10:48:58;;;;;;;14.05;6.20;;;333.20;2329.60;;;;;;5081311;28;19912;-78
2023/12/22 10:51:24;;;;;;;18.30;7.60;;;333.30;2329.60;;;;;;5066235;28;20044;-79
2023/12/22 10:53:51;;;;;;;10.00;5.72;;;333.30;2329.60;;;;;;5069309;28;20166;-78
2023/12/22 10:56:17;;;;;;;21.27;9.48;;;333.40;2329.60;;;;;;5073575;28;20082;-77
2023/12/22 10:58:45;;;;;;;19.85;11.70;;;333.60;2329.60;;;;;;5062174;28;20056;-78
2023/12/22 11:01:14;;;;;;;14.88;7.43;;;333.70;2329.60;;;;;;5039570;28;20375;-79
2023/12/22 11:03:44;;;;;;;16.38;8.68;;;333.70;2329.60;;;;;;5073703;28;20033;-79
2023/12/22 11:06:12;;;;;;;13.25;8.73;;;358.40;2329.60;;;;;;5072470;28;20025;-78
2023/12/22 11:08:40;;;;;;;16.75;7.90;;;358.40;2329.60;;;;;;5063592;28;20033;-79
2023/12/22 11:11:15;;;;;;;13.48;7.07;;;358.40;2201.60;;;;;;5077133;28;20013;-75
2023/12/22 11:13:43;;;;;;;13.52;7.75;;;333.70;2227.20;;;;;;5064361;28;20021;-77
2023/12/22 11:16:09;;;;;;;13.75;7.30;;;333.70;2201.60;;;;;;5073330;28;20466;-77
2023/12/22 11:18:37;;;;;;;10.85;6.35;;;333.60;2176.00;;;;;;5078160;28;20033;-77
2023/12/22 11:21:06;;;;;;;9.23;4.72;;;333.50;2099.20;;;;;;5077416;28;20027;-77
2023/12/22 11:23:33;;;;;;;12.13;6.65;;;333.70;2099.20;;;;;;5052159;28;20477;-77
2023/12/22 11:26:01;;;;;;;8.60;5.78;;;333.60;2022.40;;;;;;5055660;28;20444;-76
2023/12/22 11:28:26;;;;;;;7.72;3.60;;;333.20;1996.80;;;;;;5072821;28;20464;-77
2023/12/22 11:30:54;;;;;;;8.60;4.15;;;333.40;1945.60;;;;;;5056899;28;20541;-77
2023/12/22 11:33:21;;;;;;;7.25;3.35;;;333.30;1894.40;;;;;;5071633;28;20059;-77
2023/12/22 11:35:47;;;;;;;7.70;4.00;;;333.00;1868.80;;;;;;5070602;28;20059;-76
2023/12/22 11:38:13;;;;;;;7.20;3.53;;;332.90;1843.20;;;;;;5084636;28;20040;-76
2023/12/22 11:40:40;;;;;;;6.53;2.90;;;308.10;1868.80;;;;;;5070553;28;20469;-77
2023/12/22 11:43:07;;;;;;;8.93;3.25;;;332.90;1894.40;;;;;;5059516;28;20509;-77
2023/12/22 11:45:33;;;;;;;10.52;3.33;;;333.00;1920.00;;;;;;5045143;28;20036;-77
2023/12/22 11:48:11;;;;;;;6.00;3.08;;;332.90;1945.60;;;;;;5074620;28;20051;-78
2023/12/22 11:50:38;;;;;;;5.13;2.35;;;333.10;1971.20;;;;;;5053723;28;20586;-76
2023/12/22 11:53:29;;;;;;;9.13;2.78;;;333.30;1945.60;;;;;;5060712;28;20444;-77
2023/12/22 11:56:02;;;;;;;4.95;2.50;;;333.20;1894.40;;;;;;5071616;28;20050;-78
2023/12/22 11:58:41;;;;;;;8.00;3.50;;;332.90;1920.00;;;;;;5070475;28;20048;-78
2023/12/22 12:01:12;;;;;;;20.77;9.43;;;332.90;1996.80;;;;;;5061904;28;20021;-77
2023/12/22 12:04:03;;;;;;;15.10;6.47;;;332.90;2048.00;;;;;;5064382;28;20028;-75
2023/12/22 12:06:29;;;;;;;9.27;4.03;;;332.80;2073.60;;;;;;5073914;28;20589;-77
2023/12/22 12:08:56;;;;;;;9.77;4.88;;;308.10;2073.60;;;;;;5061300;28;20104;-77
2023/12/22 12:11:23;;;;;;;9.10;3.42;;;307.90;2176.00;;;;;;5069266;28;20116;-77
2023/12/22 12:13:49;;;;;;;6.25;2.92;;;308.00;2201.60;;;;;;5061509;28;20025;-76
2023/12/22 12:16:21;;;;;;;9.38;4.57;;;308.00;2201.60;;;;;;5048904;28;20029;-77
2023/12/22 12:18:47;;;;;;;6.68;3.22;;;308.00;2201.60;;;;;;5067973;28;20025;-77
2023/12/22 12:21:13;;;;;;;6.43;2.60;;;307.80;2022.40;;;;;;5063555;28;20495;-78
2023/12/22 12:23:41;;;;;;;5.13;2.33;;;307.80;2022.40;;;;;;5068950;28;20029;-77
2023/12/22 12:26:12;;;;;;;11.65;4.40;;;307.70;2022.40;;;;;;5068492;28;20095;-77
2023/12/22 12:28:38;;;;;;;11.80;5.57;;;307.80;2073.60;;;;;;5075228;28;20032;-78
2023/12/22 12:31:08;;;;;;;11.68;6.85;;;307.70;2099.20;;;;;;5066981;28;20553;-78
2023/12/22 12:33:36;;;;;;;16.30;7.18;;;307.60;2022.40;;;;;;5081345;28;20131;-78
2023/12/22 12:36:06;;;;;;;11.48;6.20;;;307.60;2048.00;;;;;;5062778;28;20033;-78
2023/12/22 12:39:17;;;;;;;7.90;4.00;;;307.60;2073.60;;;;;;5063173;28;20445;-79
2023/12/22 12:41:44;;;;;;;7.50;2.67;;;307.40;2150.40;;;;;;5070487;28;20051;-77
2023/12/22 12:44:10;;;;;;;8.07;3.20;;;307.40;2124.80;;;;;;5061801;28;20023;-77
2023/12/22 12:46:37;;;;;;;7.88;2.58;;;307.30;2073.60;;;;;;5040538;28;20060;-77
2023/12/22 12:49:14;;;;;;;4.43;2.40;;;307.20;2099.20;;;;;;5072724;28;20111;-78
2023/12/22 12:51:46;;;;;;;3.90;1.90;;;282.50;2099.20;;;;;;5059436;28;20457;-77
2023/12/22 12:54:14;;;;;;;6.15;2.55;;;282.40;2048.00;;;;;;5062984;28;20033;-79
2023/12/22 12:56:44;;;;;;;6.80;2.72;;;282.20;2124.80;;;;;;5078453;28;20020;-78
2023/12/22 12:59:19;;;;;;;6.10;3.35;;;282.20;2150.40;;;;;;5059927;28;20390;-77
2023/12/22 13:01:47;;;;;;;13.13;5.90;;;282.10;2176.00;;;;;;5065345;28;20103;-78
2023/12/22 13:04:14;;;;;;;133.00;54.63;;;282.00;2150.40;;;;;;5065103;28;20276;-77
2023/12/22 13:06:49;;;;;;;16.83;8.48;;;282.00;2176.00;;;;;;5057939;28;20021;-78
2023/12/22 13:09:16;;;;;;;22.05;10.52;;;282.00;2201.60;;;;;;5063410;28;20475;-79
2023/12/22 13:11:43;;;;;;;41.15;18.05;;;282.00;2227.20;;;;;;5056438;28;20033;-77
2023/12/22 13:14:10;;;;;;;13.13;5.00;;;282.00;2227.20;;;;;;5067719;28;20360;-78
2023/12/22 13:16:36;;;;;;;6.38;2.88;;;281.80;2252.80;;;;;;5072553;28;20036;-77
2023/12/22 13:19:02;;;;;;;8.55;3.90;;;281.80;2278.40;;;;;;5076734;28;20020;-78
2023/12/22 13:21:31;;;;;;;7.57;4.13;;;281.80;2278.40;;;;;;5067102;28;20116;-79
2023/12/22 13:24:16;;;;;;;7.38;3.42;;;281.80;2278.40;;;;;;5080329;28;20036;-79